Nigton, Texas
Current Conditions -  °F | °C
As of 5:09 AM on Friday 19 Dec 2014 (Local Time) from KLFK Reporting Station
Light Rain Light Rain  
Wind Chill: 53°   Ceiling: 500
Heat Index: 53°   Visibility: 7mi
Dew Point: 49°   Wind: 7mph
Humidity: 86%   Direction: NA
Pressure: 30.04"   Gusts: 16mph
Location:  31.2615°N, 94.9718°W
Report Text: KLFK 191109Z AUTO VRB06G14KT 7SM -RA BKN005 OVC040 12/09 A3004 RMK AO2 P0001 T01170094 $
Loading
Personal Weather Stations






























Interactive Weather Map New forecast layout! Learn more

10-Day Weather Forecast

Advertisements
Track Severe Weather on mobile